<?xml version="1.0" encoding="UTF-8" standalone="no" ?>
<gpx xmlns="http://www.topografix.com/GPX/1/1" xmlns:xsi="http://www.w3.org/2001/XMLSchema-instance" xsi:schemaLocation="http://www.topografix.com/GPX/1/1 http://www.topografix.com/GPX/1/1/gpx.xsd" version="1.1" creator="VisuGPX - https://www.visugpx.com">
  <metadata>
    <name>15198928-Chauviat</name>
  </metadata>
  <trk>
    <name><![CDATA[15198928-Chauviat]]></name>
    <trkseg>
      <trkpt lat="45.99924" lon="3.03575">
        <ele>598</ele>
        <time>2022-09-28T07:34:12Z</time>
      </trkpt>
      <trkpt lat="45.99924" lon="3.03578">
        <ele>598</ele>
        <time>2022-09-28T07:34:15Z</time>
      </trkpt>
      <trkpt lat="45.99925" lon="3.03561">
        <ele>598</ele>
        <time>2022-09-28T07:34:31Z</time>
      </trkpt>
      <trkpt lat="45.99894" lon="3.03534">
        <ele>597</ele>
        <time>2022-09-28T07:35:19Z</time>
      </trkpt>
      <trkpt lat="45.99873" lon="3.03511">
        <ele>597</ele>
        <time>2022-09-28T07:35:54Z</time>
      </trkpt>
      <trkpt lat="45.99858" lon="3.03466">
        <ele>597</ele>
        <time>2022-09-28T07:36:40Z</time>
      </trkpt>
      <trkpt lat="45.99845" lon="3.03426">
        <ele>598</ele>
        <time>2022-09-28T07:37:21Z</time>
      </trkpt>
      <trkpt lat="45.99797" lon="3.03314">
        <ele>601</ele>
        <time>2022-09-28T07:39:23Z</time>
      </trkpt>
      <trkpt lat="45.99783" lon="3.0326">
        <ele>603</ele>
        <time>2022-09-28T07:40:17Z</time>
      </trkpt>
      <trkpt lat="45.99764" lon="3.03229">
        <ele>603</ele>
        <time>2022-09-28T07:40:55Z</time>
      </trkpt>
      <trkpt lat="45.99724" lon="3.03186">
        <ele>604</ele>
        <time>2022-09-28T07:42:02Z</time>
      </trkpt>
      <trkpt lat="45.99721" lon="3.03178">
        <ele>604</ele>
        <time>2022-09-28T07:42:10Z</time>
      </trkpt>
      <trkpt lat="45.99719" lon="3.03166">
        <ele>604</ele>
        <time>2022-09-28T07:42:22Z</time>
      </trkpt>
      <trkpt lat="45.99715" lon="3.03141">
        <ele>605</ele>
        <time>2022-09-28T07:42:45Z</time>
      </trkpt>
      <trkpt lat="45.99682" lon="3.03024">
        <ele>610</ele>
        <time>2022-09-28T07:44:42Z</time>
      </trkpt>
      <trkpt lat="45.99675" lon="3.03007">
        <ele>611</ele>
        <time>2022-09-28T07:45:01Z</time>
      </trkpt>
      <trkpt lat="45.99657" lon="3.02982">
        <ele>610</ele>
        <time>2022-09-28T07:45:34Z</time>
      </trkpt>
      <trkpt lat="45.99641" lon="3.02953">
        <ele>610</ele>
        <time>2022-09-28T07:46:08Z</time>
      </trkpt>
      <trkpt lat="45.99616" lon="3.02864">
        <ele>607</ele>
        <time>2022-09-28T07:47:37Z</time>
      </trkpt>
      <trkpt lat="45.99604" lon="3.0284">
        <ele>607</ele>
        <time>2022-09-28T07:48:05Z</time>
      </trkpt>
      <trkpt lat="45.99589" lon="3.0282">
        <ele>607</ele>
        <time>2022-09-28T07:48:32Z</time>
      </trkpt>
      <trkpt lat="45.99583" lon="3.02809">
        <ele>607</ele>
        <time>2022-09-28T07:48:45Z</time>
      </trkpt>
      <trkpt lat="45.99578" lon="3.02775">
        <ele>607</ele>
        <time>2022-09-28T07:49:17Z</time>
      </trkpt>
      <trkpt lat="45.99575" lon="3.0276">
        <ele>607</ele>
        <time>2022-09-28T07:49:32Z</time>
      </trkpt>
      <trkpt lat="45.99563" lon="3.0274">
        <ele>607</ele>
        <time>2022-09-28T07:49:56Z</time>
      </trkpt>
      <trkpt lat="45.9955" lon="3.02724">
        <ele>607</ele>
        <time>2022-09-28T07:50:19Z</time>
      </trkpt>
      <trkpt lat="45.99531" lon="3.02707">
        <ele>608</ele>
        <time>2022-09-28T07:50:49Z</time>
      </trkpt>
      <trkpt lat="45.99527" lon="3.02717">
        <ele>608</ele>
        <time>2022-09-28T07:51:00Z</time>
      </trkpt>
      <trkpt lat="45.99522" lon="3.02737">
        <ele>610</ele>
        <time>2022-09-28T07:51:19Z</time>
      </trkpt>
      <trkpt lat="45.99519" lon="3.0277">
        <ele>611</ele>
        <time>2022-09-28T07:51:50Z</time>
      </trkpt>
      <trkpt lat="45.99518" lon="3.02799">
        <ele>612</ele>
        <time>2022-09-28T07:52:17Z</time>
      </trkpt>
      <trkpt lat="45.99519" lon="3.02822">
        <ele>612</ele>
        <time>2022-09-28T07:52:39Z</time>
      </trkpt>
      <trkpt lat="45.99529" lon="3.02896">
        <ele>612</ele>
        <time>2022-09-28T07:53:48Z</time>
      </trkpt>
      <trkpt lat="45.9953" lon="3.02913">
        <ele>612</ele>
        <time>2022-09-28T07:54:04Z</time>
      </trkpt>
      <trkpt lat="45.99527" lon="3.02945">
        <ele>611</ele>
        <time>2022-09-28T07:54:34Z</time>
      </trkpt>
      <trkpt lat="45.99505" lon="3.0278">
        <ele>612</ele>
        <time>2022-09-28T07:57:10Z</time>
      </trkpt>
      <trkpt lat="45.9949" lon="3.02697">
        <ele>610</ele>
        <time>2022-09-28T07:58:29Z</time>
      </trkpt>
      <trkpt lat="45.99476" lon="3.02647">
        <ele>609</ele>
        <time>2022-09-28T07:59:19Z</time>
      </trkpt>
      <trkpt lat="45.9947" lon="3.02631">
        <ele>608</ele>
        <time>2022-09-28T07:59:36Z</time>
      </trkpt>
      <trkpt lat="45.99454" lon="3.02603">
        <ele>607</ele>
        <time>2022-09-28T08:00:10Z</time>
      </trkpt>
      <trkpt lat="45.99406" lon="3.0255">
        <ele>606</ele>
        <time>2022-09-28T08:01:31Z</time>
      </trkpt>
      <trkpt lat="45.99396" lon="3.02537">
        <ele>605</ele>
        <time>2022-09-28T08:01:49Z</time>
      </trkpt>
      <trkpt lat="45.99385" lon="3.02517">
        <ele>604</ele>
        <time>2022-09-28T08:02:12Z</time>
      </trkpt>
      <trkpt lat="45.9938" lon="3.02504">
        <ele>603</ele>
        <time>2022-09-28T08:02:26Z</time>
      </trkpt>
      <trkpt lat="45.99377" lon="3.0249">
        <ele>603</ele>
        <time>2022-09-28T08:02:40Z</time>
      </trkpt>
      <trkpt lat="45.99374" lon="3.02493">
        <ele>603</ele>
        <time>2022-09-28T08:02:45Z</time>
      </trkpt>
      <trkpt lat="45.99368" lon="3.02493">
        <ele>604</ele>
        <time>2022-09-28T08:02:53Z</time>
      </trkpt>
      <trkpt lat="45.9936" lon="3.02487">
        <ele>604</ele>
        <time>2022-09-28T08:03:05Z</time>
      </trkpt>
      <trkpt lat="45.99339" lon="3.02464">
        <ele>603</ele>
        <time>2022-09-28T08:03:40Z</time>
      </trkpt>
      <trkpt lat="45.99312" lon="3.02427">
        <ele>603</ele>
        <time>2022-09-28T08:04:30Z</time>
      </trkpt>
      <trkpt lat="45.99292" lon="3.02395">
        <ele>603</ele>
        <time>2022-09-28T08:05:09Z</time>
      </trkpt>
      <trkpt lat="45.99257" lon="3.0233">
        <ele>601</ele>
        <time>2022-09-28T08:06:26Z</time>
      </trkpt>
      <trkpt lat="45.99237" lon="3.02308">
        <ele>602</ele>
        <time>2022-09-28T08:06:59Z</time>
      </trkpt>
      <trkpt lat="45.99228" lon="3.02295">
        <ele>602</ele>
        <time>2022-09-28T08:07:16Z</time>
      </trkpt>
      <trkpt lat="45.99217" lon="3.02265">
        <ele>601</ele>
        <time>2022-09-28T08:07:48Z</time>
      </trkpt>
      <trkpt lat="45.99208" lon="3.02216">
        <ele>601</ele>
        <time>2022-09-28T08:08:35Z</time>
      </trkpt>
      <trkpt lat="45.99203" lon="3.02201">
        <ele>601</ele>
        <time>2022-09-28T08:08:50Z</time>
      </trkpt>
      <trkpt lat="45.99197" lon="3.0219">
        <ele>602</ele>
        <time>2022-09-28T08:09:03Z</time>
      </trkpt>
      <trkpt lat="45.99189" lon="3.0218">
        <ele>602</ele>
        <time>2022-09-28T08:09:17Z</time>
      </trkpt>
      <trkpt lat="45.99175" lon="3.02162">
        <ele>602</ele>
        <time>2022-09-28T08:09:42Z</time>
      </trkpt>
      <trkpt lat="45.99153" lon="3.02124">
        <ele>602</ele>
        <time>2022-09-28T08:10:28Z</time>
      </trkpt>
      <trkpt lat="45.99144" lon="3.02113">
        <ele>602</ele>
        <time>2022-09-28T08:10:44Z</time>
      </trkpt>
      <trkpt lat="45.99132" lon="3.02104">
        <ele>602</ele>
        <time>2022-09-28T08:11:02Z</time>
      </trkpt>
      <trkpt lat="45.99124" lon="3.02102">
        <ele>602</ele>
        <time>2022-09-28T08:11:13Z</time>
      </trkpt>
      <trkpt lat="45.99056" lon="3.021">
        <ele>604</ele>
        <time>2022-09-28T08:12:44Z</time>
      </trkpt>
      <trkpt lat="45.99049" lon="3.02102">
        <ele>605</ele>
        <time>2022-09-28T08:12:53Z</time>
      </trkpt>
      <trkpt lat="45.99043" lon="3.02106">
        <ele>605</ele>
        <time>2022-09-28T08:13:02Z</time>
      </trkpt>
      <trkpt lat="45.99022" lon="3.02142">
        <ele>607</ele>
        <time>2022-09-28T08:13:45Z</time>
      </trkpt>
      <trkpt lat="45.99016" lon="3.02148">
        <ele>608</ele>
        <time>2022-09-28T08:13:55Z</time>
      </trkpt>
      <trkpt lat="45.99001" lon="3.02151">
        <ele>608</ele>
        <time>2022-09-28T08:14:15Z</time>
      </trkpt>
      <trkpt lat="45.98918" lon="3.02137">
        <ele>609</ele>
        <time>2022-09-28T08:16:07Z</time>
      </trkpt>
      <trkpt lat="45.98807" lon="3.02095">
        <ele>612</ele>
        <time>2022-09-28T08:18:40Z</time>
      </trkpt>
      <trkpt lat="45.98734" lon="3.02072">
        <ele>617</ele>
        <time>2022-09-28T08:20:20Z</time>
      </trkpt>
      <trkpt lat="45.98677" lon="3.02041">
        <ele>618</ele>
        <time>2022-09-28T08:21:41Z</time>
      </trkpt>
      <trkpt lat="45.98644" lon="3.02016">
        <ele>616</ele>
        <time>2022-09-28T08:22:31Z</time>
      </trkpt>
      <trkpt lat="45.9863" lon="3.02">
        <ele>615</ele>
        <time>2022-09-28T08:22:55Z</time>
      </trkpt>
      <trkpt lat="45.98581" lon="3.01928">
        <ele>613</ele>
        <time>2022-09-28T08:24:28Z</time>
      </trkpt>
      <trkpt lat="45.98522" lon="3.01864">
        <ele>614</ele>
        <time>2022-09-28T08:26:07Z</time>
      </trkpt>
      <trkpt lat="45.98515" lon="3.01855">
        <ele>614</ele>
        <time>2022-09-28T08:26:19Z</time>
      </trkpt>
      <trkpt lat="45.98511" lon="3.01849">
        <ele>614</ele>
        <time>2022-09-28T08:26:27Z</time>
      </trkpt>
      <trkpt lat="45.9852" lon="3.01803">
        <ele>612</ele>
        <time>2022-09-28T08:27:11Z</time>
      </trkpt>
      <trkpt lat="45.98522" lon="3.01785">
        <ele>612</ele>
        <time>2022-09-28T08:27:28Z</time>
      </trkpt>
      <trkpt lat="45.9851" lon="3.01758">
        <ele>611</ele>
        <time>2022-09-28T08:27:58Z</time>
      </trkpt>
      <trkpt lat="45.98502" lon="3.01735">
        <ele>611</ele>
        <time>2022-09-28T08:28:22Z</time>
      </trkpt>
      <trkpt lat="45.985" lon="3.01728">
        <ele>611</ele>
        <time>2022-09-28T08:28:29Z</time>
      </trkpt>
      <trkpt lat="45.98501" lon="3.01723">
        <ele>611</ele>
        <time>2022-09-28T08:28:34Z</time>
      </trkpt>
      <trkpt lat="45.98507" lon="3.01712">
        <ele>611</ele>
        <time>2022-09-28T08:28:47Z</time>
      </trkpt>
      <trkpt lat="45.98521" lon="3.01695">
        <ele>612</ele>
        <time>2022-09-28T08:29:11Z</time>
      </trkpt>
      <trkpt lat="45.98674" lon="3.01554">
        <ele>618</ele>
        <time>2022-09-28T08:33:14Z</time>
      </trkpt>
      <trkpt lat="45.98678" lon="3.01539">
        <ele>619</ele>
        <time>2022-09-28T08:33:28Z</time>
      </trkpt>
      <trkpt lat="45.98656" lon="3.01457">
        <ele>621</ele>
        <time>2022-09-28T08:34:50Z</time>
      </trkpt>
      <trkpt lat="45.98638" lon="3.01361">
        <ele>625</ele>
        <time>2022-09-28T08:36:22Z</time>
      </trkpt>
      <trkpt lat="45.9862" lon="3.01191">
        <ele>627</ele>
        <time>2022-09-28T08:39:02Z</time>
      </trkpt>
      <trkpt lat="45.98646" lon="3.01145">
        <ele>629</ele>
        <time>2022-09-28T08:39:57Z</time>
      </trkpt>
      <trkpt lat="45.98645" lon="3.01138">
        <ele>629</ele>
        <time>2022-09-28T08:40:03Z</time>
      </trkpt>
      <trkpt lat="45.98654" lon="3.01103">
        <ele>632</ele>
        <time>2022-09-28T08:40:38Z</time>
      </trkpt>
      <trkpt lat="45.9867" lon="3.00983">
        <ele>642</ele>
        <time>2022-09-28T08:42:31Z</time>
      </trkpt>
      <trkpt lat="45.98675" lon="3.00964">
        <ele>644</ele>
        <time>2022-09-28T08:42:50Z</time>
      </trkpt>
      <trkpt lat="45.9868" lon="3.00931">
        <ele>647</ele>
        <time>2022-09-28T08:43:21Z</time>
      </trkpt>
      <trkpt lat="45.98677" lon="3.00924">
        <ele>647</ele>
        <time>2022-09-28T08:43:29Z</time>
      </trkpt>
      <trkpt lat="45.98679" lon="3.00907">
        <ele>649</ele>
        <time>2022-09-28T08:43:45Z</time>
      </trkpt>
      <trkpt lat="45.98684" lon="3.00886">
        <ele>650</ele>
        <time>2022-09-28T08:44:05Z</time>
      </trkpt>
      <trkpt lat="45.98686" lon="3.00868">
        <ele>651</ele>
        <time>2022-09-28T08:44:22Z</time>
      </trkpt>
      <trkpt lat="45.98683" lon="3.00844">
        <ele>653</ele>
        <time>2022-09-28T08:44:45Z</time>
      </trkpt>
      <trkpt lat="45.98676" lon="3.00812">
        <ele>655</ele>
        <time>2022-09-28T08:45:16Z</time>
      </trkpt>
      <trkpt lat="45.98611" lon="3.00792">
        <ele>655</ele>
        <time>2022-09-28T08:46:45Z</time>
      </trkpt>
      <trkpt lat="45.98581" lon="3.00777">
        <ele>655</ele>
        <time>2022-09-28T08:47:27Z</time>
      </trkpt>
      <trkpt lat="45.98557" lon="3.00757">
        <ele>656</ele>
        <time>2022-09-28T08:48:04Z</time>
      </trkpt>
      <trkpt lat="45.98518" lon="3.00717">
        <ele>658</ele>
        <time>2022-09-28T08:49:08Z</time>
      </trkpt>
      <trkpt lat="45.98516" lon="3.0072">
        <ele>658</ele>
        <time>2022-09-28T08:49:12Z</time>
      </trkpt>
      <trkpt lat="45.98494" lon="3.00758">
        <ele>657</ele>
        <time>2022-09-28T08:49:58Z</time>
      </trkpt>
      <trkpt lat="45.98471" lon="3.00788">
        <ele>655</ele>
        <time>2022-09-28T08:50:39Z</time>
      </trkpt>
      <trkpt lat="45.98454" lon="3.00806">
        <ele>653</ele>
        <time>2022-09-28T08:51:07Z</time>
      </trkpt>
      <trkpt lat="45.98435" lon="3.00822">
        <ele>652</ele>
        <time>2022-09-28T08:51:37Z</time>
      </trkpt>
      <trkpt lat="45.98387" lon="3.00852">
        <ele>647</ele>
        <time>2022-09-28T08:52:47Z</time>
      </trkpt>
      <trkpt lat="45.9835" lon="3.0089">
        <ele>641</ele>
        <time>2022-09-28T08:53:47Z</time>
      </trkpt>
      <trkpt lat="45.98342" lon="3.00895">
        <ele>640</ele>
        <time>2022-09-28T08:53:59Z</time>
      </trkpt>
      <trkpt lat="45.9832" lon="3.00899">
        <ele>639</ele>
        <time>2022-09-28T08:54:28Z</time>
      </trkpt>
      <trkpt lat="45.98249" lon="3.00944">
        <ele>633</ele>
        <time>2022-09-28T08:56:12Z</time>
      </trkpt>
      <trkpt lat="45.98217" lon="3.0096">
        <ele>633</ele>
        <time>2022-09-28T08:56:57Z</time>
      </trkpt>
      <trkpt lat="45.98202" lon="3.00963">
        <ele>633</ele>
        <time>2022-09-28T08:57:17Z</time>
      </trkpt>
      <trkpt lat="45.98159" lon="3.00965">
        <ele>633</ele>
        <time>2022-09-28T08:58:15Z</time>
      </trkpt>
      <trkpt lat="45.98144" lon="3.00971">
        <ele>633</ele>
        <time>2022-09-28T08:58:36Z</time>
      </trkpt>
      <trkpt lat="45.9812" lon="3.00998">
        <ele>632</ele>
        <time>2022-09-28T08:59:16Z</time>
      </trkpt>
      <trkpt lat="45.98102" lon="3.0104">
        <ele>630</ele>
        <time>2022-09-28T09:00:02Z</time>
      </trkpt>
      <trkpt lat="45.98092" lon="3.01058">
        <ele>630</ele>
        <time>2022-09-28T09:00:23Z</time>
      </trkpt>
      <trkpt lat="45.98078" lon="3.01076">
        <ele>629</ele>
        <time>2022-09-28T09:00:48Z</time>
      </trkpt>
      <trkpt lat="45.98049" lon="3.01111">
        <ele>628</ele>
        <time>2022-09-28T09:01:39Z</time>
      </trkpt>
      <trkpt lat="45.98024" lon="3.01135">
        <ele>627</ele>
        <time>2022-09-28T09:02:19Z</time>
      </trkpt>
      <trkpt lat="45.97993" lon="3.01176">
        <ele>627</ele>
        <time>2022-09-28T09:03:15Z</time>
      </trkpt>
      <trkpt lat="45.97976" lon="3.01194">
        <ele>628</ele>
        <time>2022-09-28T09:03:43Z</time>
      </trkpt>
      <trkpt lat="45.97933" lon="3.01226">
        <ele>631</ele>
        <time>2022-09-28T09:04:48Z</time>
      </trkpt>
      <trkpt lat="45.97813" lon="3.01308">
        <ele>633</ele>
        <time>2022-09-28T09:07:45Z</time>
      </trkpt>
      <trkpt lat="45.97814" lon="3.01316">
        <ele>633</ele>
        <time>2022-09-28T09:07:53Z</time>
      </trkpt>
      <trkpt lat="45.97827" lon="3.01478">
        <ele>636</ele>
        <time>2022-09-28T09:10:24Z</time>
      </trkpt>
      <trkpt lat="45.97826" lon="3.01499">
        <ele>636</ele>
        <time>2022-09-28T09:10:44Z</time>
      </trkpt>
      <trkpt lat="45.97805" lon="3.01603">
        <ele>637</ele>
        <time>2022-09-28T09:12:24Z</time>
      </trkpt>
      <trkpt lat="45.97789" lon="3.0171">
        <ele>637</ele>
        <time>2022-09-28T09:14:06Z</time>
      </trkpt>
      <trkpt lat="45.9778" lon="3.01706">
        <ele>637</ele>
        <time>2022-09-28T09:14:18Z</time>
      </trkpt>
      <trkpt lat="45.9776" lon="3.01687">
        <ele>638</ele>
        <time>2022-09-28T09:14:50Z</time>
      </trkpt>
      <trkpt lat="45.97751" lon="3.01685">
        <ele>639</ele>
        <time>2022-09-28T09:15:02Z</time>
      </trkpt>
      <trkpt lat="45.97745" lon="3.01686">
        <ele>639</ele>
        <time>2022-09-28T09:15:10Z</time>
      </trkpt>
      <trkpt lat="45.97682" lon="3.01716">
        <ele>644</ele>
        <time>2022-09-28T09:16:39Z</time>
      </trkpt>
      <trkpt lat="45.97653" lon="3.01736">
        <ele>646</ele>
        <time>2022-09-28T09:17:22Z</time>
      </trkpt>
      <trkpt lat="45.97631" lon="3.01747">
        <ele>648</ele>
        <time>2022-09-28T09:17:53Z</time>
      </trkpt>
      <trkpt lat="45.97591" lon="3.01758">
        <ele>652</ele>
        <time>2022-09-28T09:18:47Z</time>
      </trkpt>
      <trkpt lat="45.97534" lon="3.01761">
        <ele>658</ele>
        <time>2022-09-28T09:20:03Z</time>
      </trkpt>
      <trkpt lat="45.97523" lon="3.01764">
        <ele>659</ele>
        <time>2022-09-28T09:20:18Z</time>
      </trkpt>
      <trkpt lat="45.97475" lon="3.01784">
        <ele>664</ele>
        <time>2022-09-28T09:21:25Z</time>
      </trkpt>
      <trkpt lat="45.97463" lon="3.01791">
        <ele>665</ele>
        <time>2022-09-28T09:21:42Z</time>
      </trkpt>
      <trkpt lat="45.97451" lon="3.01804">
        <ele>667</ele>
        <time>2022-09-28T09:22:02Z</time>
      </trkpt>
      <trkpt lat="45.97433" lon="3.01828">
        <ele>669</ele>
        <time>2022-09-28T09:22:35Z</time>
      </trkpt>
      <trkpt lat="45.97386" lon="3.01902">
        <ele>673</ele>
        <time>2022-09-28T09:24:08Z</time>
      </trkpt>
      <trkpt lat="45.97377" lon="3.01911">
        <ele>674</ele>
        <time>2022-09-28T09:24:23Z</time>
      </trkpt>
      <trkpt lat="45.9736" lon="3.01919">
        <ele>675</ele>
        <time>2022-09-28T09:24:46Z</time>
      </trkpt>
      <trkpt lat="45.97328" lon="3.01922">
        <ele>677</ele>
        <time>2022-09-28T09:25:29Z</time>
      </trkpt>
      <trkpt lat="45.97322" lon="3.01925">
        <ele>678</ele>
        <time>2022-09-28T09:25:38Z</time>
      </trkpt>
      <trkpt lat="45.97317" lon="3.02008">
        <ele>673</ele>
        <time>2022-09-28T09:26:55Z</time>
      </trkpt>
      <trkpt lat="45.97305" lon="3.02076">
        <ele>670</ele>
        <time>2022-09-28T09:28:00Z</time>
      </trkpt>
      <trkpt lat="45.97291" lon="3.02142">
        <ele>667</ele>
        <time>2022-09-28T09:29:04Z</time>
      </trkpt>
      <trkpt lat="45.97279" lon="3.02224">
        <ele>664</ele>
        <time>2022-09-28T09:30:22Z</time>
      </trkpt>
      <trkpt lat="45.97278" lon="3.02231">
        <ele>664</ele>
        <time>2022-09-28T09:30:28Z</time>
      </trkpt>
      <trkpt lat="45.97264" lon="3.02236">
        <ele>665</ele>
        <time>2022-09-28T09:30:48Z</time>
      </trkpt>
      <trkpt lat="45.97248" lon="3.02238">
        <ele>666</ele>
        <time>2022-09-28T09:31:09Z</time>
      </trkpt>
      <trkpt lat="45.97217" lon="3.02232">
        <ele>669</ele>
        <time>2022-09-28T09:31:51Z</time>
      </trkpt>
      <trkpt lat="45.97179" lon="3.02243">
        <ele>672</ele>
        <time>2022-09-28T09:32:43Z</time>
      </trkpt>
      <trkpt lat="45.97164" lon="3.02246">
        <ele>673</ele>
        <time>2022-09-28T09:33:03Z</time>
      </trkpt>
      <trkpt lat="45.97164" lon="3.02244">
        <ele>673</ele>
        <time>2022-09-28T09:33:05Z</time>
      </trkpt>
      <trkpt lat="45.97164" lon="3.02246">
        <ele>673</ele>
        <time>2022-09-28T09:33:06Z</time>
      </trkpt>
      <trkpt lat="45.97131" lon="3.02235">
        <ele>674</ele>
        <time>2022-09-28T09:33:52Z</time>
      </trkpt>
      <trkpt lat="45.97109" lon="3.0224">
        <ele>675</ele>
        <time>2022-09-28T09:34:21Z</time>
      </trkpt>
      <trkpt lat="45.97089" lon="3.02228">
        <ele>676</ele>
        <time>2022-09-28T09:34:50Z</time>
      </trkpt>
      <trkpt lat="45.97072" lon="3.02205">
        <ele>676</ele>
        <time>2022-09-28T09:35:21Z</time>
      </trkpt>
      <trkpt lat="45.97064" lon="3.02186">
        <ele>676</ele>
        <time>2022-09-28T09:35:42Z</time>
      </trkpt>
      <trkpt lat="45.97034" lon="3.02152">
        <ele>677</ele>
        <time>2022-09-28T09:36:33Z</time>
      </trkpt>
      <trkpt lat="45.97015" lon="3.02139">
        <ele>678</ele>
        <time>2022-09-28T09:37:01Z</time>
      </trkpt>
      <trkpt lat="45.96986" lon="3.02128">
        <ele>678</ele>
        <time>2022-09-28T09:37:41Z</time>
      </trkpt>
      <trkpt lat="45.96975" lon="3.02127">
        <ele>677</ele>
        <time>2022-09-28T09:37:56Z</time>
      </trkpt>
      <trkpt lat="45.96961" lon="3.02131">
        <ele>675</ele>
        <time>2022-09-28T09:38:15Z</time>
      </trkpt>
      <trkpt lat="45.96975" lon="3.02127">
        <ele>677</ele>
        <time>2022-09-28T09:38:34Z</time>
      </trkpt>
      <trkpt lat="45.96986" lon="3.02128">
        <ele>678</ele>
        <time>2022-09-28T09:38:49Z</time>
      </trkpt>
      <trkpt lat="45.97015" lon="3.02139">
        <ele>678</ele>
        <time>2022-09-28T09:39:29Z</time>
      </trkpt>
      <trkpt lat="45.97034" lon="3.02152">
        <ele>677</ele>
        <time>2022-09-28T09:39:57Z</time>
      </trkpt>
      <trkpt lat="45.97064" lon="3.02186">
        <ele>676</ele>
        <time>2022-09-28T09:40:48Z</time>
      </trkpt>
      <trkpt lat="45.97072" lon="3.02205">
        <ele>676</ele>
        <time>2022-09-28T09:41:08Z</time>
      </trkpt>
      <trkpt lat="45.97089" lon="3.02228">
        <ele>676</ele>
        <time>2022-09-28T09:41:39Z</time>
      </trkpt>
      <trkpt lat="45.97109" lon="3.0224">
        <ele>675</ele>
        <time>2022-09-28T09:42:08Z</time>
      </trkpt>
      <trkpt lat="45.97122" lon="3.02314">
        <ele>669</ele>
        <time>2022-09-28T09:43:19Z</time>
      </trkpt>
      <trkpt lat="45.97123" lon="3.02333">
        <ele>668</ele>
        <time>2022-09-28T09:43:37Z</time>
      </trkpt>
      <trkpt lat="45.97153" lon="3.02342">
        <ele>666</ele>
        <time>2022-09-28T09:44:18Z</time>
      </trkpt>
      <trkpt lat="45.9717" lon="3.0235">
        <ele>665</ele>
        <time>2022-09-28T09:44:42Z</time>
      </trkpt>
      <trkpt lat="45.97174" lon="3.02356">
        <ele>665</ele>
        <time>2022-09-28T09:44:49Z</time>
      </trkpt>
      <trkpt lat="45.97211" lon="3.02433">
        <ele>658</ele>
        <time>2022-09-28T09:46:16Z</time>
      </trkpt>
      <trkpt lat="45.97222" lon="3.02442">
        <ele>657</ele>
        <time>2022-09-28T09:46:33Z</time>
      </trkpt>
      <trkpt lat="45.97254" lon="3.02463">
        <ele>655</ele>
        <time>2022-09-28T09:47:20Z</time>
      </trkpt>
      <trkpt lat="45.97291" lon="3.02475">
        <ele>655</ele>
        <time>2022-09-28T09:48:11Z</time>
      </trkpt>
      <trkpt lat="45.97298" lon="3.02475">
        <ele>655</ele>
        <time>2022-09-28T09:48:20Z</time>
      </trkpt>
      <trkpt lat="45.97347" lon="3.02539">
        <ele>653</ele>
        <time>2022-09-28T09:49:48Z</time>
      </trkpt>
      <trkpt lat="45.97363" lon="3.02566">
        <ele>652</ele>
        <time>2022-09-28T09:50:21Z</time>
      </trkpt>
      <trkpt lat="45.97385" lon="3.02613">
        <ele>652</ele>
        <time>2022-09-28T09:51:14Z</time>
      </trkpt>
      <trkpt lat="45.974" lon="3.02655">
        <ele>652</ele>
        <time>2022-09-28T09:51:57Z</time>
      </trkpt>
      <trkpt lat="45.97405" lon="3.02651">
        <ele>652</ele>
        <time>2022-09-28T09:52:05Z</time>
      </trkpt>
      <trkpt lat="45.97546" lon="3.02793">
        <ele>654</ele>
        <time>2022-09-28T09:55:55Z</time>
      </trkpt>
      <trkpt lat="45.97577" lon="3.02812">
        <ele>653</ele>
        <time>2022-09-28T09:56:40Z</time>
      </trkpt>
      <trkpt lat="45.97645" lon="3.02833">
        <ele>655</ele>
        <time>2022-09-28T09:58:13Z</time>
      </trkpt>
      <trkpt lat="45.97691" lon="3.02857">
        <ele>657</ele>
        <time>2022-09-28T09:59:18Z</time>
      </trkpt>
      <trkpt lat="45.97703" lon="3.02868">
        <ele>657</ele>
        <time>2022-09-28T09:59:37Z</time>
      </trkpt>
      <trkpt lat="45.97719" lon="3.02893">
        <ele>657</ele>
        <time>2022-09-28T10:00:08Z</time>
      </trkpt>
      <trkpt lat="45.97743" lon="3.02921">
        <ele>657</ele>
        <time>2022-09-28T10:00:50Z</time>
      </trkpt>
      <trkpt lat="45.97788" lon="3.02957">
        <ele>659</ele>
        <time>2022-09-28T10:01:58Z</time>
      </trkpt>
      <trkpt lat="45.97793" lon="3.02959">
        <ele>659</ele>
        <time>2022-09-28T10:02:05Z</time>
      </trkpt>
      <trkpt lat="45.97809" lon="3.02965">
        <ele>660</ele>
        <time>2022-09-28T10:02:27Z</time>
      </trkpt>
      <trkpt lat="45.97973" lon="3.02981">
        <ele>661</ele>
        <time>2022-09-28T10:06:07Z</time>
      </trkpt>
      <trkpt lat="45.98016" lon="3.02985">
        <ele>661</ele>
        <time>2022-09-28T10:07:04Z</time>
      </trkpt>
      <trkpt lat="45.9807" lon="3.02997">
        <ele>662</ele>
        <time>2022-09-28T10:08:17Z</time>
      </trkpt>
      <trkpt lat="45.98137" lon="3.03007">
        <ele>663</ele>
        <time>2022-09-28T10:09:47Z</time>
      </trkpt>
      <trkpt lat="45.9819" lon="3.0301">
        <ele>663</ele>
        <time>2022-09-28T10:10:58Z</time>
      </trkpt>
      <trkpt lat="45.9821" lon="3.03018">
        <ele>663</ele>
        <time>2022-09-28T10:11:25Z</time>
      </trkpt>
      <trkpt lat="45.98287" lon="3.03104">
        <ele>658</ele>
        <time>2022-09-28T10:13:35Z</time>
      </trkpt>
      <trkpt lat="45.9831" lon="3.03143">
        <ele>656</ele>
        <time>2022-09-28T10:14:23Z</time>
      </trkpt>
      <trkpt lat="45.98327" lon="3.03284">
        <ele>649</ele>
        <time>2022-09-28T10:16:36Z</time>
      </trkpt>
      <trkpt lat="45.98335" lon="3.03381">
        <ele>646</ele>
        <time>2022-09-28T10:18:06Z</time>
      </trkpt>
      <trkpt lat="45.98345" lon="3.03426">
        <ele>646</ele>
        <time>2022-09-28T10:18:50Z</time>
      </trkpt>
      <trkpt lat="45.98367" lon="3.0352">
        <ele>643</ele>
        <time>2022-09-28T10:20:22Z</time>
      </trkpt>
      <trkpt lat="45.98398" lon="3.03648">
        <ele>637</ele>
        <time>2022-09-28T10:22:28Z</time>
      </trkpt>
      <trkpt lat="45.98405" lon="3.03689">
        <ele>635</ele>
        <time>2022-09-28T10:23:07Z</time>
      </trkpt>
      <trkpt lat="45.98409" lon="3.03805">
        <ele>632</ele>
        <time>2022-09-28T10:24:54Z</time>
      </trkpt>
      <trkpt lat="45.98406" lon="3.03878">
        <ele>631</ele>
        <time>2022-09-28T10:26:02Z</time>
      </trkpt>
      <trkpt lat="45.98409" lon="3.03902">
        <ele>631</ele>
        <time>2022-09-28T10:26:25Z</time>
      </trkpt>
      <trkpt lat="45.98433" lon="3.03955">
        <ele>630</ele>
        <time>2022-09-28T10:27:24Z</time>
      </trkpt>
      <trkpt lat="45.98435" lon="3.03964">
        <ele>630</ele>
        <time>2022-09-28T10:27:32Z</time>
      </trkpt>
      <trkpt lat="45.98434" lon="3.03973">
        <ele>630</ele>
        <time>2022-09-28T10:27:41Z</time>
      </trkpt>
      <trkpt lat="45.98417" lon="3.04036">
        <ele>629</ele>
        <time>2022-09-28T10:28:43Z</time>
      </trkpt>
      <trkpt lat="45.98411" lon="3.04081">
        <ele>628</ele>
        <time>2022-09-28T10:29:26Z</time>
      </trkpt>
      <trkpt lat="45.98391" lon="3.04127">
        <ele>627</ele>
        <time>2022-09-28T10:30:16Z</time>
      </trkpt>
      <trkpt lat="45.98368" lon="3.04191">
        <ele>629</ele>
        <time>2022-09-28T10:31:23Z</time>
      </trkpt>
      <trkpt lat="45.98368" lon="3.04196">
        <ele>629</ele>
        <time>2022-09-28T10:31:28Z</time>
      </trkpt>
      <trkpt lat="45.98368" lon="3.04213">
        <ele>630</ele>
        <time>2022-09-28T10:31:43Z</time>
      </trkpt>
      <trkpt lat="45.98432" lon="3.04189">
        <ele>629</ele>
        <time>2022-09-28T10:33:12Z</time>
      </trkpt>
      <trkpt lat="45.9848" lon="3.04181">
        <ele>628</ele>
        <time>2022-09-28T10:34:16Z</time>
      </trkpt>
      <trkpt lat="45.98641" lon="3.04132">
        <ele>623</ele>
        <time>2022-09-28T10:37:56Z</time>
      </trkpt>
      <trkpt lat="45.98676" lon="3.04132">
        <ele>622</ele>
        <time>2022-09-28T10:38:43Z</time>
      </trkpt>
      <trkpt lat="45.98728" lon="3.04157">
        <ele>618</ele>
        <time>2022-09-28T10:39:56Z</time>
      </trkpt>
      <trkpt lat="45.9884" lon="3.04205">
        <ele>616</ele>
        <time>2022-09-28T10:42:32Z</time>
      </trkpt>
      <trkpt lat="45.98847" lon="3.04209">
        <ele>615</ele>
        <time>2022-09-28T10:42:42Z</time>
      </trkpt>
      <trkpt lat="45.98854" lon="3.04209">
        <ele>614</ele>
        <time>2022-09-28T10:42:51Z</time>
      </trkpt>
      <trkpt lat="45.98856" lon="3.04185">
        <ele>613</ele>
        <time>2022-09-28T10:43:13Z</time>
      </trkpt>
      <trkpt lat="45.98863" lon="3.0417">
        <ele>613</ele>
        <time>2022-09-28T10:43:30Z</time>
      </trkpt>
      <trkpt lat="45.98875" lon="3.04157">
        <ele>614</ele>
        <time>2022-09-28T10:43:50Z</time>
      </trkpt>
      <trkpt lat="45.98885" lon="3.04154">
        <ele>614</ele>
        <time>2022-09-28T10:44:04Z</time>
      </trkpt>
      <trkpt lat="45.98957" lon="3.04146">
        <ele>612</ele>
        <time>2022-09-28T10:45:40Z</time>
      </trkpt>
      <trkpt lat="45.98968" lon="3.04141">
        <ele>612</ele>
        <time>2022-09-28T10:45:56Z</time>
      </trkpt>
      <trkpt lat="45.9898" lon="3.04132">
        <ele>613</ele>
        <time>2022-09-28T10:46:14Z</time>
      </trkpt>
      <trkpt lat="45.98991" lon="3.04117">
        <ele>614</ele>
        <time>2022-09-28T10:46:34Z</time>
      </trkpt>
      <trkpt lat="45.99003" lon="3.04099">
        <ele>615</ele>
        <time>2022-09-28T10:46:57Z</time>
      </trkpt>
      <trkpt lat="45.99018" lon="3.04066">
        <ele>616</ele>
        <time>2022-09-28T10:47:34Z</time>
      </trkpt>
      <trkpt lat="45.99025" lon="3.04045">
        <ele>617</ele>
        <time>2022-09-28T10:47:55Z</time>
      </trkpt>
      <trkpt lat="45.99036" lon="3.04049">
        <ele>615</ele>
        <time>2022-09-28T10:48:10Z</time>
      </trkpt>
      <trkpt lat="45.99067" lon="3.04046">
        <ele>611</ele>
        <time>2022-09-28T10:48:52Z</time>
      </trkpt>
      <trkpt lat="45.9914" lon="3.04024">
        <ele>606</ele>
        <time>2022-09-28T10:50:31Z</time>
      </trkpt>
      <trkpt lat="45.9917" lon="3.04004">
        <ele>604</ele>
        <time>2022-09-28T10:51:15Z</time>
      </trkpt>
      <trkpt lat="45.99196" lon="3.03977">
        <ele>602</ele>
        <time>2022-09-28T10:51:58Z</time>
      </trkpt>
      <trkpt lat="45.99227" lon="3.03953">
        <ele>600</ele>
        <time>2022-09-28T10:52:45Z</time>
      </trkpt>
      <trkpt lat="45.99254" lon="3.03943">
        <ele>599</ele>
        <time>2022-09-28T10:53:22Z</time>
      </trkpt>
      <trkpt lat="45.99367" lon="3.03918">
        <ele>592</ele>
        <time>2022-09-28T10:55:55Z</time>
      </trkpt>
      <trkpt lat="45.99381" lon="3.03909">
        <ele>591</ele>
        <time>2022-09-28T10:56:15Z</time>
      </trkpt>
      <trkpt lat="45.99411" lon="3.03868">
        <ele>590</ele>
        <time>2022-09-28T10:57:11Z</time>
      </trkpt>
      <trkpt lat="45.99438" lon="3.03819">
        <ele>589</ele>
        <time>2022-09-28T10:58:09Z</time>
      </trkpt>
      <trkpt lat="45.99468" lon="3.03786">
        <ele>589</ele>
        <time>2022-09-28T10:58:59Z</time>
      </trkpt>
      <trkpt lat="45.99515" lon="3.0371">
        <ele>588</ele>
        <time>2022-09-28T11:00:33Z</time>
      </trkpt>
      <trkpt lat="45.9953" lon="3.03677">
        <ele>588</ele>
        <time>2022-09-28T11:01:10Z</time>
      </trkpt>
      <trkpt lat="45.99546" lon="3.03651">
        <ele>587</ele>
        <time>2022-09-28T11:01:42Z</time>
      </trkpt>
      <trkpt lat="45.99567" lon="3.03623">
        <ele>587</ele>
        <time>2022-09-28T11:02:20Z</time>
      </trkpt>
      <trkpt lat="45.99592" lon="3.03597">
        <ele>587</ele>
        <time>2022-09-28T11:03:01Z</time>
      </trkpt>
      <trkpt lat="45.99619" lon="3.03582">
        <ele>587</ele>
        <time>2022-09-28T11:03:40Z</time>
      </trkpt>
      <trkpt lat="45.99625" lon="3.03569">
        <ele>587</ele>
        <time>2022-09-28T11:03:55Z</time>
      </trkpt>
      <trkpt lat="45.99631" lon="3.03534">
        <ele>588</ele>
        <time>2022-09-28T11:04:28Z</time>
      </trkpt>
      <trkpt lat="45.99638" lon="3.03513">
        <ele>589</ele>
        <time>2022-09-28T11:04:50Z</time>
      </trkpt>
      <trkpt lat="45.9965" lon="3.0349">
        <ele>590</ele>
        <time>2022-09-28T11:05:16Z</time>
      </trkpt>
      <trkpt lat="45.99678" lon="3.03455">
        <ele>592</ele>
        <time>2022-09-28T11:06:06Z</time>
      </trkpt>
      <trkpt lat="45.99694" lon="3.03429">
        <ele>594</ele>
        <time>2022-09-28T11:06:38Z</time>
      </trkpt>
      <trkpt lat="45.99701" lon="3.03424">
        <ele>594</ele>
        <time>2022-09-28T11:06:48Z</time>
      </trkpt>
      <trkpt lat="45.99715" lon="3.03423">
        <ele>595</ele>
        <time>2022-09-28T11:07:07Z</time>
      </trkpt>
      <trkpt lat="45.99741" lon="3.03428">
        <ele>595</ele>
        <time>2022-09-28T11:07:42Z</time>
      </trkpt>
      <trkpt lat="45.99779" lon="3.03464">
        <ele>595</ele>
        <time>2022-09-28T11:08:43Z</time>
      </trkpt>
      <trkpt lat="45.99799" lon="3.03475">
        <ele>595</ele>
        <time>2022-09-28T11:09:11Z</time>
      </trkpt>
      <trkpt lat="45.99834" lon="3.03528">
        <ele>595</ele>
        <time>2022-09-28T11:10:19Z</time>
      </trkpt>
      <trkpt lat="45.99844" lon="3.03534">
        <ele>595</ele>
        <time>2022-09-28T11:10:34Z</time>
      </trkpt>
      <trkpt lat="45.99865" lon="3.03542">
        <ele>596</ele>
        <time>2022-09-28T11:11:03Z</time>
      </trkpt>
      <trkpt lat="45.99885" lon="3.03547">
        <ele>597</ele>
        <time>2022-09-28T11:11:30Z</time>
      </trkpt>
      <trkpt lat="45.99894" lon="3.03534">
        <ele>597</ele>
        <time>2022-09-28T11:11:47Z</time>
      </trkpt>
      <trkpt lat="45.99925" lon="3.03561">
        <ele>598</ele>
        <time>2022-09-28T11:12:35Z</time>
      </trkpt>
      <trkpt lat="45.99924" lon="3.03575">
        <ele>598</ele>
        <time>2022-09-28T11:12:48Z</time>
      </trkpt>
    </trkseg>
  </trk>
</gpx>